createdAt,value
2023-10-19T00:00:37.244Z,7.17
2023-10-19T00:03:04.848Z,7.60
2023-10-19T00:05:33.434Z,7.37
2023-10-19T00:08:22.852Z,7.80
2023-10-19T00:10:56.764Z,7.83
2023-10-19T00:13:24.020Z,7.73
2023-10-19T00:15:53.092Z,7.50
2023-10-19T00:18:20.390Z,7.20
2023-10-19T00:20:55.404Z,7.50
2023-10-19T00:23:36.690Z,8.57
2023-10-19T00:26:20.354Z,10.70
2023-10-19T00:28:50.634Z,6.70
2023-10-19T00:31:21.195Z,7.17
2023-10-19T00:33:50.592Z,7.60
2023-10-19T00:36:21.489Z,7.77
2023-10-19T00:38:53.244Z,7.13
2023-10-19T00:44:04.134Z,7.80
2023-10-19T00:46:44.402Z,7.87
2023-10-19T00:49:16.871Z,7.23
2023-10-19T00:51:56.931Z,7.13
2023-10-19T00:54:34.281Z,8.27
2023-10-19T00:57:07.239Z,7.67
2023-10-19T00:59:44.195Z,7.90
2023-10-19T01:02:26.635Z,8.37
2023-10-19T01:04:58.004Z,7.77
2023-10-19T01:07:29.215Z,7.87
2023-10-19T01:09:58.092Z,7.97
2023-10-19T01:12:25.595Z,8.40
2023-10-19T01:15:18.134Z,8.30
2023-10-19T01:17:54.046Z,9.10
2023-10-19T01:20:32.327Z,8.23
2023-10-19T01:23:12.447Z,8.67
2023-10-19T01:25:52.551Z,7.43
2023-10-19T01:28:20.966Z,7.67
2023-10-19T01:30:53.039Z,8.30
2023-10-19T01:33:30.019Z,7.07
2023-10-19T01:36:13.793Z,7.90
2023-10-19T01:38:41.789Z,8.43
2023-10-19T01:41:16.279Z,7.43
2023-10-19T01:43:44.901Z,8.20
2023-10-19T01:46:14.765Z,8.93
2023-10-19T01:48:44.440Z,8.37
2023-10-19T01:51:16.134Z,8.07
2023-10-19T01:53:48.093Z,8.83
2023-10-19T01:56:17.882Z,9.37
2023-10-19T01:58:47.998Z,7.70
2023-10-19T02:01:21.849Z,7.50
2023-10-19T02:03:55.960Z,8.87
2023-10-19T02:06:27.387Z,8.57
2023-10-19T02:09:02.104Z,7.40
2023-10-19T02:11:30.073Z,8.80
2023-10-19T02:14:05.595Z,8.77
2023-10-19T02:16:34.412Z,8.07
2023-10-19T02:19:02.812Z,8.33
2023-10-19T02:21:31.596Z,8.13
2023-10-19T02:23:59.196Z,8.33
2023-10-19T02:26:31.812Z,9.00
2023-10-19T02:28:59.547Z,8.57
2023-10-19T02:31:27.230Z,8.13
2023-10-19T02:34:00.871Z,9.13
2023-10-19T02:36:32.048Z,8.90
2023-10-19T02:39:08.948Z,8.90
2023-10-19T02:41:37.078Z,9.33
2023-10-19T02:44:11.473Z,9.43
2023-10-19T02:46:39.885Z,10.00
2023-10-19T02:49:37.665Z,9.73
2023-10-19T02:52:05.693Z,9.83
2023-10-19T02:54:37.406Z,9.93
2023-10-19T02:57:08.749Z,8.93
2023-10-19T02:59:36.423Z,8.40
2023-10-19T03:02:13.181Z,8.53
2023-10-19T03:04:42.025Z,9.27
2023-10-19T03:07:09.234Z,9.70
2023-10-19T03:09:54.785Z,10.23
2023-10-19T03:12:26.600Z,9.47
2023-10-19T03:14:54.301Z,9.57
2023-10-19T03:17:21.611Z,9.57
2023-10-19T03:19:50.483Z,9.40
2023-10-19T03:22:20.546Z,8.77
2023-10-19T03:24:47.661Z,10.63
2023-10-19T03:27:15.862Z,9.17
2023-10-19T03:29:47.579Z,9.27
2023-10-19T03:32:15.200Z,10.33
2023-10-19T03:34:48.404Z,9.70
2023-10-19T03:37:16.047Z,10.07
2023-10-19T03:39:47.026Z,10.47
2023-10-19T03:42:17.726Z,10.33
2023-10-19T03:44:51.039Z,9.17
2023-10-19T03:47:26.946Z,10.60
2023-10-19T03:49:54.561Z,9.67
2023-10-19T03:52:22.095Z,10.30
2023-10-19T03:54:50.606Z,9.93
2023-10-19T03:57:31.164Z,9.60
2023-10-19T03:59:59.606Z,10.70
2023-10-19T04:02:37.044Z,10.40
2023-10-19T04:05:05.038Z,9.07
2023-10-19T04:07:32.910Z,10.27
2023-10-19T04:10:00.266Z,10.37
2023-10-19T04:12:37.795Z,11.03
2023-10-19T04:15:16.725Z,10.33
2023-10-19T04:17:44.457Z,9.30
2023-10-19T04:20:18.046Z,9.40
2023-10-19T04:22:48.146Z,9.47
2023-10-19T04:25:20.154Z,9.77
2023-10-19T04:27:50.467Z,9.13
2023-10-19T04:30:19.450Z,9.27
2023-10-19T04:32:47.180Z,9.03
2023-10-19T04:35:16.160Z,9.77
2023-10-19T04:37:43.906Z,10.20
2023-10-19T04:40:11.788Z,9.47
2023-10-19T04:42:42.045Z,9.63
2023-10-19T04:45:10.117Z,10.17
2023-10-19T04:47:37.464Z,9.63
2023-10-19T04:50:05.158Z,9.37
2023-10-19T04:52:32.624Z,9.23
2023-10-19T04:55:00.719Z,9.17
2023-10-19T04:57:27.834Z,9.40
2023-10-19T04:59:55.080Z,9.17
2023-10-19T05:02:22.710Z,8.87
2023-10-19T05:04:50.025Z,9.67
2023-10-19T05:07:20.426Z,8.77
2023-10-19T05:09:48.074Z,8.93
2023-10-19T05:12:16.259Z,9.30
2023-10-19T05:14:44.496Z,9.63
2023-10-19T05:17:12.076Z,9.97
2023-10-19T05:19:40.084Z,10.10
2023-10-19T05:22:08.349Z,8.80
2023-10-19T05:24:35.821Z,9.87
2023-10-19T05:27:10.132Z,9.37
2023-10-19T05:29:38.606Z,9.47
2023-10-19T05:32:06.636Z,9.67
2023-10-19T05:34:37.488Z,9.27
2023-10-19T05:37:06.857Z,9.77
2023-10-19T05:39:35.293Z,10.07
2023-10-19T05:42:02.818Z,9.57
2023-10-19T05:44:33.559Z,8.93
2023-10-19T05:47:02.298Z,8.93
2023-10-19T05:49:30.433Z,9.63
2023-10-19T05:51:57.918Z,8.80
2023-10-19T05:54:25.506Z,8.90
2023-10-19T05:56:54.583Z,8.50
2023-10-19T05:59:21.961Z,9.70
2023-10-19T06:01:49.565Z,9.03
2023-10-19T06:04:20.882Z,9.17
2023-10-19T06:06:50.363Z,9.27
2023-10-19T06:09:18.485Z,9.63
2023-10-19T06:11:46.482Z,8.60
2023-10-19T06:14:14.312Z,8.33
2023-10-19T06:16:41.560Z,9.37
2023-10-19T06:19:09.101Z,8.63
2023-10-19T06:21:36.370Z,9.07
2023-10-19T06:24:04.135Z,9.50
2023-10-19T06:26:31.523Z,8.50
2023-10-19T06:29:02.430Z,7.73
2023-10-19T06:31:30.502Z,8.37
2023-10-19T06:33:59.030Z,9.37
2023-10-19T06:36:26.688Z,9.53
2023-10-19T06:38:55.548Z,8.23
2023-10-19T06:41:23.393Z,8.47
2023-10-19T06:43:51.197Z,8.70
2023-10-19T06:46:18.660Z,8.90
2023-10-19T06:48:46.132Z,8.07
2023-10-19T06:51:13.364Z,8.77
2023-10-19T06:53:41.341Z,8.77
2023-10-19T06:56:09.158Z,8.33
2023-10-19T06:58:37.472Z,8.13
2023-10-19T07:01:09.449Z,8.13
2023-10-19T07:03:37.070Z,8.93
2023-10-19T07:06:08.297Z,8.17
2023-10-19T07:08:38.033Z,8.23
2023-10-19T07:11:05.750Z,8.27
2023-10-19T07:13:35.095Z,7.97
2023-10-19T07:16:04.493Z,8.17
2023-10-19T07:18:31.631Z,8.33
2023-10-19T07:21:04.774Z,8.03
2023-10-19T07:23:33.010Z,8.10
2023-10-19T07:26:03.224Z,7.90
2023-10-19T07:28:31.006Z,7.67
2023-10-19T07:31:00.988Z,8.70
2023-10-19T07:33:29.354Z,8.70
2023-10-19T07:35:56.766Z,7.53
2023-10-19T07:38:24.710Z,7.80
2023-10-19T07:40:54.286Z,8.13
2023-10-19T07:43:22.726Z,7.97
2023-10-19T07:45:50.306Z,8.60
2023-10-19T07:48:18.163Z,7.83
2023-10-19T07:50:45.641Z,8.20
2023-10-19T07:53:13.011Z,8.07
2023-10-19T07:55:40.622Z,8.63
2023-10-19T07:58:08.103Z,7.23
2023-10-19T08:00:35.713Z,7.47
2023-10-19T08:03:04.490Z,7.87
2023-10-19T08:05:31.908Z,6.93
2023-10-19T08:08:01.643Z,7.27
2023-10-19T08:10:29.147Z,7.50
2023-10-19T08:12:56.768Z,7.43
2023-10-19T08:15:24.287Z,7.93
2023-10-19T08:17:52.378Z,6.63
2023-10-19T08:20:26.734Z,7.77
2023-10-19T08:22:54.961Z,7.87
2023-10-19T08:25:22.693Z,7.67
2023-10-19T08:27:51.356Z,7.13
2023-10-19T08:30:24.653Z,7.00
2023-10-19T08:32:55.192Z,7.00
2023-10-19T08:35:27.034Z,8.13
2023-10-19T08:37:55.190Z,6.70
2023-10-19T08:40:24.703Z,7.10
2023-10-19T08:42:52.663Z,7.07
2023-10-19T08:45:19.915Z,6.33
2023-10-19T08:48:00.907Z,7.63
2023-10-19T08:50:31.687Z,7.40
2023-10-19T08:52:59.814Z,7.47
2023-10-19T08:55:45.226Z,6.47
2023-10-19T08:58:14.911Z,6.80
2023-10-19T09:00:49.098Z,6.83
2023-10-19T09:03:18.635Z,6.93
2023-10-19T09:05:49.590Z,6.10
2023-10-19T09:08:18.239Z,7.03
2023-10-19T09:10:46.735Z,7.03
2023-10-19T09:30:58.134Z,7.13
2023-10-19T09:33:25.640Z,6.43
2023-10-19T09:35:58.844Z,6.87
2023-10-19T09:38:27.357Z,6.53
2023-10-19T09:41:01.273Z,5.90
2023-10-19T09:43:47.151Z,5.50
2023-10-19T09:46:17.182Z,5.17
2023-10-19T09:48:47.180Z,5.43
2023-10-19T09:51:17.643Z,5.27
2023-10-19T09:53:47.208Z,5.70
2023-10-19T09:56:20.004Z,5.73
2023-10-19T09:58:48.309Z,5.30
2023-10-19T10:01:16.131Z,5.43
2023-10-19T10:03:49.901Z,4.83
2023-10-19T10:06:21.342Z,4.97
2023-10-19T10:08:49.598Z,4.63
2023-10-19T10:11:21.153Z,4.97
2023-10-19T10:13:52.032Z,5.87
2023-10-19T10:16:30.598Z,5.40
2023-10-19T10:19:02.028Z,5.60
2023-10-19T10:21:30.857Z,4.80
2023-10-19T10:23:59.027Z,3.80
2023-10-19T10:26:27.266Z,5.03
2023-10-19T10:29:14.337Z,4.60
2023-10-19T10:31:50.757Z,4.30
2023-10-19T10:34:36.713Z,4.63
2023-10-19T10:37:11.992Z,4.77
2023-10-19T10:39:41.768Z,3.77
2023-10-19T10:42:10.732Z,3.83
2023-10-19T10:44:42.137Z,4.20
2023-10-19T10:47:10.169Z,4.37
2023-10-19T10:49:50.347Z,3.67
2023-10-19T10:52:27.270Z,4.43
2023-10-19T10:54:54.712Z,4.47
2023-10-19T10:57:21.856Z,3.43
2023-10-19T10:59:49.556Z,3.80
2023-10-19T11:02:20.615Z,3.43
2023-10-19T11:04:48.289Z,3.80
2023-10-19T11:07:22.309Z,3.60
2023-10-19T11:09:49.828Z,3.10
2023-10-19T11:12:17.313Z,3.30
2023-10-19T11:14:58.782Z,3.30
2023-10-19T11:17:31.600Z,3.30
2023-10-19T11:20:00.568Z,2.67
2023-10-19T11:22:28.252Z,3.60
2023-10-19T11:24:55.883Z,3.50
2023-10-19T11:27:29.928Z,3.40
2023-10-19T11:30:04.464Z,3.40
2023-10-19T11:32:39.421Z,3.13
2023-10-19T11:35:08.288Z,3.40
2023-10-19T11:37:53.871Z,3.03
2023-10-19T11:40:24.467Z,2.77
2023-10-19T11:42:51.921Z,3.00
2023-10-19T11:45:19.438Z,3.23
2023-10-19T11:47:47.235Z,2.70
2023-10-19T11:50:16.663Z,2.60
2023-10-19T11:52:44.608Z,2.87
2023-10-19T11:55:11.808Z,2.27
2023-10-19T11:57:39.044Z,5.73
2023-10-19T12:00:09.654Z,2.53
2023-10-19T12:02:39.906Z,1.93
2023-10-19T12:05:11.078Z,2.73
2023-10-19T12:07:39.346Z,2.30
2023-10-19T12:10:09.922Z,3.27
2023-10-19T12:12:50.174Z,2.40
2023-10-19T12:15:26.802Z,2.27
2023-10-19T12:17:55.807Z,2.30
2023-10-19T12:20:23.469Z,2.40
2023-10-19T12:22:54.936Z,2.23
2023-10-19T12:25:32.053Z,2.37
2023-10-19T12:28:05.316Z,2.20
2023-10-19T12:30:40.140Z,2.03
2023-10-19T12:33:12.610Z,2.23
2023-10-19T12:35:46.171Z,2.10
2023-10-19T12:38:17.496Z,3.47
2023-10-19T12:40:48.468Z,2.83
2023-10-19T12:43:16.478Z,2.50
2023-10-19T12:45:45.315Z,2.80
2023-10-19T12:48:12.684Z,2.57
2023-10-19T12:50:42.118Z,2.43
2023-10-19T12:53:09.854Z,2.93
2023-10-19T12:55:39.016Z,2.70
2023-10-19T12:58:10.293Z,2.40
2023-10-19T13:00:41.840Z,2.60
2023-10-19T13:03:09.768Z,3.07
2023-10-19T13:05:41.011Z,2.73
2023-10-19T13:08:14.384Z,2.70
2023-10-19T13:10:45.768Z,2.53
2023-10-19T13:13:17.463Z,2.53
2023-10-19T13:15:46.110Z,2.90
2023-10-19T13:18:28.908Z,2.50
2023-10-19T13:20:56.275Z,2.23
2023-10-19T13:23:23.413Z,2.73
2023-10-19T13:25:58.959Z,2.30
2023-10-19T13:28:28.295Z,2.73
2023-10-19T13:30:55.749Z,2.40
2023-10-19T13:33:25.133Z,2.83
2023-10-19T13:35:52.579Z,2.67
2023-10-19T13:38:23.586Z,2.27
2023-10-19T13:40:51.095Z,2.67
2023-10-19T13:43:22.574Z,2.90
2023-10-19T13:45:50.017Z,2.60
2023-10-19T13:48:17.301Z,2.50
2023-10-19T13:50:49.840Z,2.70
2023-10-19T13:53:17.645Z,3.23
2023-10-19T13:55:44.963Z,2.73
2023-10-19T13:58:12.178Z,3.20
2023-10-19T14:00:42.393Z,2.70
2023-10-19T14:03:10.319Z,2.97
2023-10-19T14:05:38.685Z,2.93
2023-10-19T14:08:06.980Z,2.63
2023-10-19T14:10:35.037Z,3.00
2023-10-19T14:13:02.463Z,2.97
2023-10-19T14:15:29.934Z,2.53
2023-10-19T14:17:59.423Z,3.00
2023-10-19T14:20:26.791Z,2.60
2023-10-19T14:22:57.252Z,2.47
2023-10-19T14:25:24.707Z,2.80
2023-10-19T14:27:56.959Z,2.73
2023-10-19T14:30:24.901Z,2.47
2023-10-19T14:32:52.772Z,2.40
2023-10-19T14:35:21.480Z,2.40
2023-10-19T14:37:52.555Z,2.13
2023-10-19T14:40:25.604Z,2.50
2023-10-19T14:42:56.672Z,2.90
2023-10-19T14:45:33.649Z,3.27
2023-10-19T14:48:04.329Z,2.63
2023-10-19T14:50:31.858Z,2.53
2023-10-19T14:52:59.296Z,2.67
2023-10-19T14:55:26.618Z,2.47
2023-10-19T14:57:55.718Z,2.40
2023-10-19T15:00:34.814Z,3.00
2023-10-19T15:03:08.208Z,2.83
2023-10-19T15:05:39.030Z,2.53
2023-10-19T15:08:07.634Z,2.73
2023-10-19T15:10:36.085Z,2.93
2023-10-19T15:13:03.887Z,2.20
2023-10-19T15:15:31.435Z,2.90
2023-10-19T15:17:59.409Z,2.50
2023-10-19T15:20:28.167Z,2.50
2023-10-19T15:22:55.714Z,2.30
2023-10-19T15:25:25.320Z,2.90
2023-10-19T15:27:53.170Z,2.70
2023-10-19T15:30:26.144Z,2.80
2023-10-19T15:32:54.771Z,2.80
2023-10-19T15:35:23.676Z,3.30
2023-10-19T15:37:55.329Z,2.67
2023-10-19T15:40:22.916Z,3.17
2023-10-19T15:42:50.050Z,2.40
2023-10-19T15:45:20.274Z,3.30
2023-10-19T15:47:48.330Z,3.07
2023-10-19T15:50:18.209Z,2.80
2023-10-19T15:52:45.929Z,3.47
2023-10-19T15:55:14.530Z,2.80
2023-10-19T15:57:42.640Z,2.77
2023-10-19T16:00:16.844Z,3.10
2023-10-19T16:02:45.083Z,3.37
2023-10-19T16:05:13.583Z,3.40
2023-10-19T16:07:41.453Z,3.27
2023-10-19T16:10:16.173Z,3.10
2023-10-19T16:12:44.380Z,3.50
2023-10-19T16:15:11.567Z,3.17
2023-10-19T16:17:44.356Z,3.17
2023-10-19T16:20:14.087Z,3.63
2023-10-19T16:22:41.580Z,3.20
2023-10-19T16:25:09.388Z,4.17
2023-10-19T16:27:36.720Z,3.77
2023-10-19T16:30:05.720Z,3.90
2023-10-19T16:32:36.946Z,3.77
2023-10-19T16:35:05.071Z,3.80
2023-10-19T16:37:32.359Z,3.87
2023-10-19T16:40:01.067Z,3.37
2023-10-19T16:42:28.204Z,4.10
2023-10-19T16:44:55.292Z,3.67
2023-10-19T16:47:23.494Z,3.93
2023-10-19T16:49:50.948Z,4.03
2023-10-19T16:52:19.092Z,4.13
2023-10-19T16:54:46.308Z,4.43
2023-10-19T16:57:13.419Z,3.90
2023-10-19T16:59:41.037Z,3.63
2023-10-19T17:02:08.321Z,3.50
2023-10-19T17:04:36.536Z,3.80
2023-10-19T17:07:03.709Z,4.13
2023-10-19T17:09:31.036Z,4.33
2023-10-19T17:11:59.036Z,5.00
2023-10-19T17:14:26.647Z,4.40
2023-10-19T17:16:54.483Z,4.60
2023-10-19T17:19:22.786Z,4.70
2023-10-19T17:21:49.971Z,4.87
2023-10-19T17:24:17.058Z,5.33
2023-10-19T17:26:44.144Z,5.00
2023-10-19T17:29:11.388Z,4.90
2023-10-19T17:31:38.543Z,5.37
2023-10-19T17:34:07.767Z,5.17
2023-10-19T17:36:35.391Z,5.57
2023-10-19T17:39:02.812Z,5.30
2023-10-19T17:41:29.960Z,5.73
2023-10-19T17:43:57.109Z,4.80
2023-10-19T17:46:24.268Z,5.23
2023-10-19T17:48:51.357Z,5.90
2023-10-19T17:51:19.390Z,6.17
2023-10-19T17:53:46.630Z,6.13
2023-10-19T17:56:13.870Z,5.60
2023-10-19T17:58:41.320Z,5.27
2023-10-19T18:01:14.558Z,6.00
2023-10-19T18:03:42.320Z,5.27
2023-10-19T18:06:10.540Z,6.03
2023-10-19T18:08:37.765Z,6.27
2023-10-19T18:11:05.091Z,5.57
2023-10-19T18:13:32.656Z,6.57
2023-10-19T18:16:00.342Z,5.80
2023-10-19T18:18:30.288Z,5.43
2023-10-19T18:20:58.384Z,5.47
2023-10-19T18:23:26.253Z,5.37
2023-10-19T18:25:56.431Z,5.47
2023-10-19T18:28:23.679Z,5.20
2023-10-19T18:30:58.965Z,5.63
2023-10-19T18:33:26.903Z,6.00
2023-10-19T18:36:01.364Z,5.40
2023-10-19T18:38:28.811Z,5.53
2023-10-19T18:41:01.051Z,5.30
2023-10-19T18:43:29.233Z,6.00
2023-10-19T18:45:57.049Z,5.70
2023-10-19T18:48:26.277Z,5.43
2023-10-19T18:51:01.670Z,5.40
2023-10-19T18:53:29.389Z,5.83
2023-10-19T18:55:56.706Z,5.83
2023-10-19T18:58:25.083Z,5.37
2023-10-19T19:00:53.741Z,5.57
2023-10-19T19:03:22.413Z,6.30
2023-10-19T19:05:50.284Z,5.73
2023-10-19T19:08:17.776Z,6.67
2023-10-19T19:10:46.916Z,5.73
2023-10-19T19:13:14.118Z,5.63
2023-10-19T19:15:42.590Z,6.47
2023-10-19T19:18:11.199Z,8.60
2023-10-19T19:20:40.838Z,9.50
2023-10-19T19:23:09.897Z,7.90
2023-10-19T19:25:38.716Z,7.43
2023-10-19T19:28:11.448Z,7.60
2023-10-19T19:30:39.647Z,7.03
2023-10-19T19:33:07.190Z,7.53
2023-10-19T19:35:34.725Z,6.50
2023-10-19T19:38:02.605Z,5.97
2023-10-19T19:40:31.496Z,7.33
2023-10-19T19:42:58.788Z,6.80
2023-10-19T19:45:26.838Z,7.13
2023-10-19T19:47:54.818Z,6.70
2023-10-19T19:50:22.142Z,7.10
2023-10-19T19:52:50.349Z,7.30
2023-10-19T19:55:17.949Z,6.37
2023-10-19T19:57:45.225Z,7.07
2023-10-19T20:00:19.279Z,7.00
2023-10-19T20:02:47.832Z,6.40
2023-10-19T20:05:16.335Z,7.33
2023-10-19T20:07:43.465Z,6.17
2023-10-19T20:10:11.528Z,6.87
2023-10-19T20:12:39.591Z,7.17
2023-10-19T20:15:09.002Z,6.53
2023-10-19T20:17:36.680Z,7.87
2023-10-19T20:20:12.188Z,7.37
2023-10-19T20:22:41.841Z,8.23
2023-10-19T20:25:15.390Z,9.07
2023-10-19T20:27:43.422Z,8.60
2023-10-19T20:30:14.085Z,9.60
2023-10-19T20:32:41.939Z,9.30
2023-10-19T20:35:09.678Z,10.03
2023-10-19T20:37:37.332Z,8.73
2023-10-19T20:40:09.764Z,9.33
2023-10-19T20:42:45.167Z,9.83
2023-10-19T20:45:18.927Z,9.60
2023-10-19T20:47:58.963Z,10.30
2023-10-19T20:50:28.732Z,10.47
2023-10-19T20:52:57.151Z,12.20
2023-10-19T20:55:24.804Z,10.27
2023-10-19T20:57:52.023Z,10.93
2023-10-19T21:00:20.959Z,11.63
2023-10-19T21:02:49.281Z,10.80
2023-10-19T21:05:20.064Z,11.67
2023-10-19T21:07:48.172Z,10.63
2023-10-19T21:10:17.446Z,11.50
2023-10-19T21:12:44.880Z,13.40
2023-10-19T21:15:17.057Z,14.37
2023-10-19T21:17:51.875Z,12.10
2023-10-19T21:20:21.441Z,12.27
2023-10-19T21:22:50.130Z,12.83
2023-10-19T21:25:18.392Z,12.67
2023-10-19T21:27:47.916Z,13.10
2023-10-19T21:30:15.339Z,13.10
2023-10-19T21:32:43.492Z,12.83
2023-10-19T21:35:11.330Z,13.07
2023-10-19T21:37:38.877Z,13.50
2023-10-19T21:40:06.795Z,13.63
2023-10-19T21:42:33.939Z,14.83
2023-10-19T21:45:02.357Z,13.70
2023-10-19T21:47:29.643Z,14.47
2023-10-19T21:49:56.953Z,13.73
2023-10-19T21:52:27.299Z,13.60
2023-10-19T21:54:57.602Z,13.03
2023-10-19T21:57:24.896Z,12.80
2023-10-19T21:59:51.984Z,14.07
2023-10-19T22:02:19.415Z,16.23
2023-10-19T22:04:46.867Z,17.07
2023-10-19T22:07:16.907Z,16.37
2023-10-19T22:09:44.280Z,14.90
2023-10-19T22:12:11.518Z,14.53
2023-10-19T22:14:40.286Z,14.53
2023-10-19T22:17:07.729Z,13.80
2023-10-19T22:19:35.048Z,14.73
2023-10-19T22:22:02.229Z,14.27
2023-10-19T22:24:30.202Z,14.17
2023-10-19T22:26:57.401Z,14.53
2023-10-19T22:29:24.536Z,16.07
2023-10-19T22:31:56.215Z,14.20
2023-10-19T22:34:23.630Z,14.90
2023-10-19T22:36:50.769Z,13.90
2023-10-19T22:39:20.310Z,15.33
2023-10-19T22:41:49.646Z,14.07
2023-10-19T22:44:17.095Z,15.37
2023-10-19T22:46:47.585Z,13.80
2023-10-19T22:49:14.816Z,15.07
2023-10-19T22:51:42.502Z,14.93
2023-10-19T22:54:09.615Z,15.23
2023-10-19T22:56:37.974Z,16.13
2023-10-19T22:59:05.369Z,16.40
2023-10-19T23:01:33.615Z,17.10
2023-10-19T23:04:01.634Z,17.73
2023-10-19T23:06:30.929Z,15.97
2023-10-19T23:08:59.720Z,16.20
2023-10-19T23:11:30.625Z,15.53
2023-10-19T23:14:00.379Z,13.93
2023-10-19T23:16:30.867Z,14.87
2023-10-19T23:18:58.930Z,14.73
2023-10-19T23:21:30.918Z,14.67
2023-10-19T23:23:58.007Z,15.10
2023-10-19T23:26:25.137Z,14.63
2023-10-19T23:28:54.509Z,14.57
2023-10-19T23:31:24.897Z,14.97
2023-10-19T23:33:53.961Z,13.80
2023-10-19T23:36:21.219Z,23.70
2023-10-19T23:38:48.471Z,17.80
2023-10-19T23:41:15.803Z,16.33
2023-10-19T23:43:43.045Z,15.57
2023-10-19T23:46:10.342Z,15.83
2023-10-19T23:48:37.586Z,15.83
2023-10-19T23:51:04.759Z,14.73
2023-10-19T23:53:32.452Z,15.27
2023-10-19T23:56:00.240Z,14.70
2023-10-19T23:58:27.445Z,14.60
